Time;durP1;ratioP1;P1;durP2;ratioP2;P2;SDS_P1;SDS_P2;PMS_P1;PMS_P2;Temp;Humidity;BMP_temperature;BMP_pressure;BME280_temperature;BME280_humidity;BME280_pressure;Samples;Min_cycle;Max_cycle;Signal;HPM_P1;HPM_P2
2023/04/25 00:02:25;;;;;;;;;;;18.40;48.00;;;;;;10372189;28;802;-72
2023/04/25 00:07:20;;;;;;;;;;;18.40;47.90;;;;;;10371467;28;810;-72
2023/04/25 00:12:16;;;;;;;;;;;18.40;47.90;;;;;;10371266;28;913;-71
2023/04/25 00:17:12;;;;;;;;;;;18.40;47.80;;;;;;10370980;28;1953;-73
2023/04/25 00:22:07;;;;;;;;;;;18.40;47.70;;;;;;10371061;28;892;-72
2023/04/25 00:27:02;;;;;;;;;;;18.40;47.70;;;;;;10371298;28;1065;-72
2023/04/25 00:31:58;;;;;;;;;;;18.40;47.90;;;;;;10370484;28;834;-71
2023/04/25 00:36:53;;;;;;;;;;;18.40;48.00;;;;;;10370900;28;1959;-72
2023/04/25 00:41:52;;;;;;;;;;;18.40;47.90;;;;;;10370779;28;916;-72
2023/04/25 00:46:49;;;;;;;;;;;18.40;47.90;;;;;;10369735;28;874;-71
2023/04/25 00:51:44;;;;;;;;;;;18.30;47.90;;;;;;10369714;28;882;-71
2023/04/25 00:56:40;;;;;;;;;;;18.30;48.00;;;;;;10369387;28;1914;-72
2023/04/25 01:01:35;;;;;;;;;;;18.30;47.80;;;;;;10369379;28;795;-71
2023/04/25 01:06:30;;;;;;;;;;;18.30;48.00;;;;;;10370375;28;884;-72
2023/04/25 01:11:26;;;;;;;;;;;18.30;48.00;;;;;;10370187;28;802;-72
2023/04/25 01:16:23;;;;;;;;;;;18.30;47.90;;;;;;10368144;28;1902;-71
2023/04/25 01:21:19;;;;;;;;;;;18.30;47.90;;;;;;10368697;28;829;-71
2023/04/25 01:26:14;;;;;;;;;;;18.30;47.90;;;;;;10368452;28;770;-71
2023/04/25 01:31:10;;;;;;;;;;;18.30;48.00;;;;;;10368848;28;817;-71
2023/04/25 01:36:05;;;;;;;;;;;18.30;48.00;;;;;;10367898;28;1906;-72
2023/04/25 01:41:00;;;;;;;;;;;18.30;47.90;;;;;;10367870;28;856;-72
2023/04/25 01:45:56;;;;;;;;;;;18.30;48.10;;;;;;10367961;28;794;-72
2023/04/25 01:50:51;;;;;;;;;;;18.20;48.00;;;;;;10367439;28;1053;-72
2023/04/25 01:55:46;;;;;;;;;;;18.20;48.10;;;;;;10367462;28;1993;-72
2023/04/25 02:00:42;;;;;;;;;;;18.30;48.00;;;;;;10367124;28;893;-71
2023/04/25 02:05:37;;;;;;;;;;;18.30;48.00;;;;;;10367296;28;782;-72
2023/04/25 02:10:33;;;;;;;;;;;18.30;48.60;;;;;;10366912;28;810;-71
2023/04/25 02:15:28;;;;;;;;;;;18.20;47.90;;;;;;10366794;28;797;-72
2023/04/25 02:20:23;;;;;;;;;;;18.20;48.10;;;;;;10366591;28;1979;-72
2023/04/25 02:25:19;;;;;;;;;;;18.20;48.10;;;;;;10366511;28;916;-71
2023/04/25 02:30:15;;;;;;;;;;;18.10;48.20;;;;;;10367027;28;883;-71
2023/04/25 02:35:10;;;;;;;;;;;18.20;48.20;;;;;;10366941;28;848;-71
2023/04/25 02:40:06;;;;;;;;;;;18.20;48.10;;;;;;10366796;28;1977;-72
2023/04/25 02:45:01;;;;;;;;;;;18.20;48.00;;;;;;10366128;28;989;-72
2023/04/25 02:49:57;;;;;;;;;;;18.20;48.10;;;;;;10366859;28;874;-72
2023/04/25 02:54:52;;;;;;;;;;;18.20;48.00;;;;;;10365731;28;1174;-72
2023/04/25 02:59:47;;;;;;;;;;;18.20;48.10;;;;;;10365300;28;1902;-72
2023/04/25 03:04:43;;;;;;;;;;;18.20;48.10;;;;;;10365746;28;898;-71
2023/04/25 03:09:38;;;;;;;;;;;18.20;48.00;;;;;;10370652;28;861;-72
2023/04/25 03:14:34;;;;;;;;;;;18.20;48.10;;;;;;10373817;28;880;-72
2023/04/25 03:19:29;;;;;;;;;;;18.20;48.10;;;;;;10373503;28;1902;-72
2023/04/25 03:24:24;;;;;;;;;;;18.10;48.10;;;;;;10374184;28;948;-72
2023/04/25 03:29:24;;;;;;;;;;;18.10;48.20;;;;;;10373117;28;848;-72
2023/04/25 03:34:21;;;;;;;;;;;18.20;48.20;;;;;;10372941;28;873;-72
2023/04/25 03:39:16;;;;;;;;;;;18.10;48.20;;;;;;10372567;28;1902;-72
2023/04/25 03:44:11;;;;;;;;;;;18.10;48.20;;;;;;10371902;28;925;-71
2023/04/25 03:49:07;;;;;;;;;;;18.10;48.10;;;;;;10372816;28;854;-72
2023/04/25 03:54:02;;;;;;;;;;;18.10;48.10;;;;;;10372017;28;861;-72
2023/04/25 03:58:58;;;;;;;;;;;18.10;48.10;;;;;;10372136;28;1918;-72
2023/04/25 04:03:53;;;;;;;;;;;18.10;48.30;;;;;;10372251;28;834;-72
2023/04/25 04:08:48;;;;;;;;;;;18.20;48.20;;;;;;10371478;28;886;-72
2023/04/25 04:13:44;;;;;;;;;;;18.20;48.10;;;;;;10371900;28;805;-71
2023/04/25 04:18:39;;;;;;;;;;;18.10;48.20;;;;;;10369961;28;1914;-72
2023/04/25 04:23:35;;;;;;;;;;;18.20;48.10;;;;;;10371571;28;800;-72
2023/04/25 04:28:30;;;;;;;;;;;18.20;48.10;;;;;;10370303;28;931;-72
2023/04/25 04:33:25;;;;;;;;;;;18.20;48.00;;;;;;10370582;28;788;-72
2023/04/25 04:38:21;;;;;;;;;;;18.30;48.10;;;;;;10370883;28;1913;-72
2023/04/25 04:43:16;;;;;;;;;;;18.30;48.00;;;;;;10370088;28;968;-72
2023/04/25 04:48:13;;;;;;;;;;;18.30;48.00;;;;;;10369891;28;902;-72
2023/04/25 04:53:09;;;;;;;;;;;18.30;48.10;;;;;;10369668;28;969;-72
2023/04/25 04:58:04;;;;;;;;;;;18.40;48.00;;;;;;10369775;28;1925;-71
2023/04/25 05:03:00;;;;;;;;;;;18.30;47.90;;;;;;10369926;28;953;-72
2023/04/25 05:07:55;;;;;;;;;;;18.30;48.00;;;;;;10369960;28;864;-72
2023/04/25 05:12:50;;;;;;;;;;;18.30;47.90;;;;;;10369610;28;786;-72
2023/04/25 05:17:46;;;;;;;;;;;18.40;47.90;;;;;;10368040;28;1909;-71
2023/04/25 05:22:41;;;;;;;;;;;18.40;47.90;;;;;;10368024;28;900;-71
2023/04/25 05:27:37;;;;;;;;;;;18.40;47.90;;;;;;10368986;28;853;-72
2023/04/25 05:32:32;;;;;;;;;;;18.40;47.90;;;;;;10367942;28;770;-71
2023/04/25 05:37:27;;;;;;;;;;;18.40;48.00;;;;;;10368713;28;1967;-71
2023/04/25 05:42:23;;;;;;;;;;;18.40;47.90;;;;;;10368472;28;762;-72
2023/04/25 05:47:18;;;;;;;;;;;18.40;47.90;;;;;;10367698;28;936;-71
2023/04/25 05:52:14;;;;;;;;;;;18.50;47.90;;;;;;10367086;28;991;-72
2023/04/25 05:57:10;;;;;;;;;;;18.40;47.90;;;;;;10367546;28;1983;-72
2023/04/25 06:02:06;;;;;;;;;;;18.40;48.00;;;;;;10368728;28;928;-72
2023/04/25 06:07:01;;;;;;;;;;;18.40;48.10;;;;;;10367714;28;854;-72
2023/04/25 06:11:57;;;;;;;;;;;18.40;48.10;;;;;;10367881;28;831;-72
2023/04/25 06:16:52;;;;;;;;;;;18.40;48.10;;;;;;10366764;28;1917;-71
2023/04/25 06:21:47;;;;;;;;;;;18.40;48.10;;;;;;10349220;28;778;-72
2023/04/25 06:26:43;;;;;;;;;;;18.40;48.00;;;;;;10367687;28;1026;-72
2023/04/25 06:31:38;;;;;;;;;;;18.40;48.00;;;;;;10367380;28;864;-72
2023/04/25 06:36:33;;;;;;;;;;;18.40;48.20;;;;;;10366303;28;1910;-72
2023/04/25 06:41:29;;;;;;;;;;;18.40;48.20;;;;;;10366925;28;837;-71
2023/04/25 06:46:24;;;;;;;;;;;18.50;48.20;;;;;;10374542;28;852;-72
2023/04/25 06:51:20;;;;;;;;;;;18.40;48.20;;;;;;10375540;28;878;-72
2023/04/25 06:56:15;;;;;;;;;;;18.40;48.20;;;;;;10374874;28;1973;-72
2023/04/25 07:01:11;;;;;;;;;;;18.50;48.20;;;;;;10374777;28;798;-67
2023/04/25 07:06:06;;;;;;;;;;;18.50;48.80;;;;;;10373975;28;868;-67
2023/04/25 07:11:02;;;;;;;;;;;18.50;48.40;;;;;;10375054;28;806;-67
2023/04/25 07:15:57;;;;;;;;;;;18.60;48.60;;;;;;10373518;28;1902;-66
2023/04/25 07:20:52;;;;;;;;;;;18.50;48.40;;;;;;10373482;28;782;-73
2023/04/25 07:25:48;;;;;;;;;;;18.50;48.20;;;;;;10373184;28;775;-67
2023/04/25 07:30:43;;;;;;;;;;;18.60;48.30;;;;;;10373314;28;829;-67
2023/04/25 07:35:39;;;;;;;;;;;18.60;48.00;;;;;;10373584;28;825;-67
2023/04/25 07:40:35;;;;;;;;;;;18.60;48.00;;;;;;10372525;28;1973;-67
2023/04/25 07:45:30;;;;;;;;;;;18.60;48.30;;;;;;10372396;28;906;-67
2023/04/25 07:50:25;;;;;;;;;;;18.60;48.30;;;;;;10372885;28;747;-67
2023/04/25 07:55:21;;;;;;;;;;;18.60;48.30;;;;;;10371182;28;1381;-67
2023/04/25 08:00:16;;;;;;;;;;;18.60;48.20;;;;;;10371831;28;1906;-67
2023/04/25 08:05:14;;;;;;;;;;;18.70;48.30;;;;;;10372332;28;849;-67
2023/04/25 08:10:09;;;;;;;;;;;18.70;48.20;;;;;;10372272;28;876;-68
2023/04/25 08:15:04;;;;;;;;;;;18.70;48.10;;;;;;10372074;28;895;-67
2023/04/25 08:20:00;;;;;;;;;;;18.70;48.10;;;;;;10370491;28;1918;-67
2023/04/25 08:24:55;;;;;;;;;;;18.60;47.90;;;;;;10371569;28;1009;-67
2023/04/25 08:29:50;;;;;;;;;;;18.60;47.90;;;;;;10370692;28;992;-67
2023/04/25 08:34:46;;;;;;;;;;;18.60;48.00;;;;;;10370945;28;767;-67
2023/04/25 08:39:42;;;;;;;;;;;18.70;48.00;;;;;;10370929;28;1897;-73
2023/04/25 08:44:37;;;;;;;;;;;18.60;48.00;;;;;;10370082;28;1071;-72
2023/04/25 08:49:33;;;;;;;;;;;18.50;48.30;;;;;;10370794;28;924;-73
2023/04/25 08:54:28;;;;;;;;;;;18.40;48.10;;;;;;10369706;28;1008;-74
2023/04/25 08:59:24;;;;;;;;;;;18.40;48.20;;;;;;10369267;28;1922;-74
2023/04/25 09:04:20;;;;;;;;;;;18.40;47.80;;;;;;10369628;28;837;-68
2023/04/25 09:09:15;;;;;;;;;;;18.40;48.00;;;;;;10368866;28;813;-68
2023/04/25 09:14:11;;;;;;;;;;;18.60;47.70;;;;;;10369552;28;841;-68
2023/04/25 09:19:06;;;;;;;;;;;18.60;47.80;;;;;;10369311;28;1914;-68
2023/04/25 09:24:02;;;;;;;;;;;18.70;47.50;;;;;;10368738;28;905;-71
2023/04/25 09:28:57;;;;;;;;;;;18.70;47.60;;;;;;10368948;28;877;-71
2023/04/25 09:33:52;;;;;;;;;;;18.60;47.60;;;;;;10368370;28;1029;-71
2023/04/25 09:38:48;;;;;;;;;;;18.60;47.80;;;;;;10368016;28;1906;-71
2023/04/25 09:43:43;;;;;;;;;;;18.60;47.60;;;;;;10367880;28;857;-71
2023/04/25 09:48:39;;;;;;;;;;;18.60;47.60;;;;;;10367719;28;913;-71
2023/04/25 09:53:35;;;;;;;;;;;18.60;47.40;;;;;;10367483;28;874;-71
2023/04/25 09:58:30;;;;;;;;;;;18.50;47.50;;;;;;10367460;28;1961;-71
2023/04/25 10:03:26;;;;;;;;;;;18.60;47.20;;;;;;10367824;28;850;-71
2023/04/25 10:08:21;;;;;;;;;;;18.60;47.10;;;;;;10367702;28;906;-71
2023/04/25 10:13:17;;;;;;;;;;;18.50;47.00;;;;;;10368140;28;874;-71
2023/04/25 10:18:12;;;;;;;;;;;18.60;46.60;;;;;;10366635;28;1898;-71
2023/04/25 10:23:07;;;;;;;;;;;18.60;46.70;;;;;;10366828;28;802;-65
2023/04/25 10:28:03;;;;;;;;;;;18.50;46.50;;;;;;10366567;28;869;-66
2023/04/25 10:32:59;;;;;;;;;;;18.50;46.50;;;;;;10367077;28;864;-66
2023/04/25 10:37:54;;;;;;;;;;;18.60;46.50;;;;;;10367481;28;1905;-66
2023/04/25 10:42:49;;;;;;;;;;;18.60;47.10;;;;;;10366257;28;753;-66
2023/04/25 10:47:45;;;;;;;;;;;18.60;47.00;;;;;;10366775;28;814;-66
2023/04/25 10:52:40;;;;;;;;;;;18.70;47.00;;;;;;10365949;28;984;-67
2023/04/25 10:57:36;;;;;;;;;;;18.70;46.70;;;;;;10366480;28;1918;-67
2023/04/25 11:02:31;;;;;;;;;;;18.70;46.40;;;;;;10365905;28;837;-67
2023/04/25 11:07:27;;;;;;;;;;;18.60;46.60;;;;;;10365824;28;841;-67
2023/04/25 11:12:22;;;;;;;;;;;18.60;46.80;;;;;;10365281;28;955;-66
2023/04/25 11:17:17;;;;;;;;;;;18.60;46.80;;;;;;10366173;28;1910;-66
2023/04/25 11:22:13;;;;;;;;;;;18.60;46.90;;;;;;10365521;28;827;-67
2023/04/25 11:27:08;;;;;;;;;;;18.60;47.00;;;;;;10365408;28;772;-67
2023/04/25 11:32:04;;;;;;;;;;;18.50;46.60;;;;;;10372991;28;758;-67
2023/04/25 11:36:59;;;;;;;;;;;18.50;46.80;;;;;;10372715;28;1914;-66
2023/04/25 11:41:55;;;;;;;;;;;18.60;46.30;;;;;;10372738;28;829;-66
2023/04/25 11:46:50;;;;;;;;;;;18.60;45.70;;;;;;10372484;28;912;-66
2023/04/25 11:51:45;;;;;;;;;;;18.60;45.70;;;;;;10372505;28;879;-66
2023/04/25 11:56:41;;;;;;;;;;;18.60;45.90;;;;;;10373042;28;1910;-74
2023/04/25 12:01:36;;;;;;;;;;;18.60;46.70;;;;;;10372631;28;900;-73
2023/04/25 12:06:32;;;;;;;;;;;18.50;46.40;;;;;;10372044;28;916;-74
2023/04/25 12:11:27;;;;;;;;;;;18.40;46.20;;;;;;10371483;28;954;-73
2023/04/25 12:16:23;;;;;;;;;;;18.50;46.10;;;;;;10371287;28;1901;-73
2023/04/25 12:21:18;;;;;;;;;;;18.40;45.70;;;;;;10370568;28;858;-73
2023/04/25 12:26:14;;;;;;;;;;;18.40;46.50;;;;;;10371558;28;924;-74
2023/04/25 12:31:09;;;;;;;;;;;18.30;46.70;;;;;;10371409;28;785;-75
2023/04/25 12:36:14;;;;;;;;;;;18.40;46.70;;;;;;10371180;28;833;-74
2023/04/25 12:41:09;;;;;;;;;;;18.30;46.60;;;;;;10370010;28;778;-74
2023/04/25 12:46:05;;;;;;;;;;;18.30;46.60;;;;;;10370733;28;875;-75
2023/04/25 12:51:00;;;;;;;;;;;18.30;46.80;;;;;;10370046;28;835;-75
2023/04/25 12:55:56;;;;;;;;;;;18.30;46.50;;;;;;10369445;28;1250;-73
2023/04/25 13:00:51;;;;;;;;;;;18.30;46.60;;;;;;10369935;28;1906;-74
2023/04/25 13:05:46;;;;;;;;;;;18.40;46.10;;;;;;10369321;28;806;-74
2023/04/25 13:10:42;;;;;;;;;;;18.40;46.70;;;;;;10368310;28;1059;-74
2023/04/25 13:15:37;;;;;;;;;;;18.40;46.70;;;;;;10368731;28;789;-74
2023/04/25 13:20:33;;;;;;;;;;;18.40;46.10;;;;;;10369129;28;1961;-74
2023/04/25 13:25:28;;;;;;;;;;;18.30;45.80;;;;;;10368289;28;882;-74
2023/04/25 13:30:23;;;;;;;;;;;18.30;46.30;;;;;;10368138;28;758;-74
2023/04/25 13:35:19;;;;;;;;;;;18.40;45.50;;;;;;10367339;28;1007;-74
2023/04/25 13:40:15;;;;;;;;;;;18.40;45.20;;;;;;10367690;28;1955;-74
2023/04/25 13:45:10;;;;;;;;;;;18.40;46.10;;;;;;10368351;28;911;-66
2023/04/25 13:50:05;;;;;;;;;;;18.50;46.50;;;;;;10367477;28;798;-66
2023/04/25 13:55:03;;;;;;;;;;;18.70;46.20;;;;;;10366569;28;1399;-67
2023/04/25 13:59:59;;;;;;;;;;;18.70;46.10;;;;;;10348888;28;1975;-66
2023/04/25 14:04:54;;;;;;;;;;;18.80;46.50;;;;;;10367163;28;785;-66
2023/04/25 14:09:50;;;;;;;;;;;18.80;46.10;;;;;;10367672;28;802;-66
2023/04/25 14:14:45;;;;;;;;;;;18.80;46.30;;;;;;10366904;28;863;-66
2023/04/25 14:19:45;;;;;;;;;;;18.90;46.20;;;;;;10366825;28;1914;-67
2023/04/25 14:24:40;;;;;;;;;;;18.80;46.00;;;;;;10366590;28;984;-66
2023/04/25 14:29:36;;;;;;;;;;;18.90;45.30;;;;;;10366492;28;1000;-66
2023/04/25 14:34:31;;;;;;;;;;;18.90;46.40;;;;;;10367034;28;845;-66
2023/04/25 14:39:27;;;;;;;;;;;18.80;46.20;;;;;;10366268;28;1905;-66
2023/04/25 14:44:22;;;;;;;;;;;18.90;46.10;;;;;;10366284;28;877;-66
2023/04/25 14:49:17;;;;;;;;;;;18.90;46.30;;;;;;10366194;28;874;-66
2023/04/25 14:54:13;;;;;;;;;;;18.90;46.60;;;;;;10366627;28;840;-66
2023/04/25 14:59:08;;;;;;;;;;;19.00;46.30;;;;;;10367309;28;1989;-66
2023/04/25 15:04:04;;;;;;;;;;;19.00;46.60;;;;;;10368080;28;822;-66
2023/04/25 15:08:59;;;;;;;;;;;19.00;46.50;;;;;;10373992;28;779;-66
2023/04/25 15:13:54;;;;;;;;;;;19.20;46.40;;;;;;10374559;28;850;-66
2023/04/25 15:18:50;;;;;;;;;;;19.20;46.30;;;;;;10373585;28;1949;-66
2023/04/25 15:23:45;;;;;;;;;;;19.40;46.10;;;;;;10373303;28;913;-66
2023/04/25 15:28:41;;;;;;;;;;;19.20;46.00;;;;;;10373818;28;847;-66
2023/04/25 15:33:37;;;;;;;;;;;19.20;45.90;;;;;;10373136;28;794;-66
2023/04/25 15:38:32;;;;;;;;;;;19.10;46.20;;;;;;10372766;28;1910;-66
2023/04/25 15:43:27;;;;;;;;;;;19.00;46.40;;;;;;10372729;28;771;-66
2023/04/25 15:48:23;;;;;;;;;;;19.00;46.60;;;;;;10372555;28;859;-66
2023/04/25 15:53:18;;;;;;;;;;;19.00;46.70;;;;;;10372341;28;861;-66
2023/04/25 15:58:13;;;;;;;;;;;19.00;46.90;;;;;;10372804;28;1918;-66
2023/04/25 16:03:09;;;;;;;;;;;19.00;46.90;;;;;;10371961;28;798;-66
2023/04/25 16:08:04;;;;;;;;;;;19.00;46.90;;;;;;10371663;28;1555;-66
2023/04/25 16:13:00;;;;;;;;;;;19.00;47.00;;;;;;10372619;28;777;-66
2023/04/25 16:17:55;;;;;;;;;;;19.00;47.00;;;;;;10371293;28;1985;-66
2023/04/25 16:22:50;;;;;;;;;;;18.90;46.90;;;;;;10371175;28;856;-66
2023/04/25 16:27:46;;;;;;;;;;;19.00;46.80;;;;;;10371536;28;849;-66
2023/04/25 16:32:41;;;;;;;;;;;19.00;46.70;;;;;;10370787;28;837;-66
2023/04/25 16:37:37;;;;;;;;;;;19.00;46.80;;;;;;10371208;28;1910;-66
2023/04/25 16:42:32;;;;;;;;;;;19.00;46.70;;;;;;10370601;28;904;-66
2023/04/25 16:47:28;;;;;;;;;;;19.00;46.80;;;;;;10369606;28;901;-66
2023/04/25 16:52:23;;;;;;;;;;;19.00;46.80;;;;;;10369952;28;823;-66
2023/04/25 16:57:19;;;;;;;;;;;19.00;46.60;;;;;;10369769;28;1906;-66
2023/04/25 17:02:15;;;;;;;;;;;19.00;46.50;;;;;;10369540;28;926;-66
2023/04/25 17:07:11;;;;;;;;;;;19.00;46.60;;;;;;10369656;28;829;-66
2023/04/25 17:12:06;;;;;;;;;;;19.10;46.70;;;;;;10369793;28;859;-66
2023/04/25 17:17:02;;;;;;;;;;;19.00;46.70;;;;;;10368981;28;1966;-66
2023/04/25 17:21:57;;;;;;;;;;;19.00;46.70;;;;;;10368795;28;878;-66
2023/04/25 17:26:54;;;;;;;;;;;19.00;46.70;;;;;;10368140;28;949;-66
2023/04/25 17:31:51;;;;;;;;;;;19.00;46.40;;;;;;10369290;28;929;-66
2023/04/25 17:36:47;;;;;;;;;;;19.00;46.20;;;;;;10368171;28;1968;-67
2023/04/25 17:41:43;;;;;;;;;;;19.00;46.60;;;;;;10367503;28;1284;-66
2023/04/25 17:46:38;;;;;;;;;;;19.00;46.50;;;;;;10367917;28;844;-66
2023/04/25 17:51:33;;;;;;;;;;;19.00;46.60;;;;;;10368437;28;899;-66
2023/04/25 17:56:29;;;;;;;;;;;19.00;46.70;;;;;;10367463;28;1967;-66
2023/04/25 18:01:24;;;;;;;;;;;19.00;46.60;;;;;;10367330;28;973;-66
2023/04/25 18:06:20;;;;;;;;;;;19.00;46.50;;;;;;10367280;28;860;-66
2023/04/25 18:11:15;;;;;;;;;;;19.00;46.40;;;;;;10367014;28;949;-66
2023/04/25 18:16:10;;;;;;;;;;;19.00;46.40;;;;;;10366348;28;1058;-66
2023/04/25 18:21:07;;;;;;;;;;;19.00;46.40;;;;;;10366757;28;2008;-66
2023/04/25 18:26:06;;;;;;;;;;;19.00;46.40;;;;;;10367170;28;902;-66
2023/04/25 18:31:02;;;;;;;;;;;19.00;46.50;;;;;;10367008;28;843;-66
2023/04/25 18:35:58;;;;;;;;;;;19.00;46.50;;;;;;10366533;28;815;-66
2023/04/25 18:40:54;;;;;;;;;;;19.00;46.50;;;;;;10365990;28;1923;-66
2023/04/25 18:45:49;;;;;;;;;;;19.00;46.70;;;;;;10366219;28;825;-66
2023/04/25 18:50:45;;;;;;;;;;;19.00;46.70;;;;;;10366999;28;872;-66
2023/04/25 18:55:40;;;;;;;;;;;19.00;46.60;;;;;;10365915;28;1298;-66
2023/04/25 19:00:36;;;;;;;;;;;19.00;46.70;;;;;;10365986;28;1945;-66
2023/04/25 19:05:31;;;;;;;;;;;19.00;46.80;;;;;;10366187;28;750;-66
2023/04/25 19:10:27;;;;;;;;;;;19.00;47.40;;;;;;10365868;28;940;-66
2023/04/25 19:15:23;;;;;;;;;;;19.00;46.80;;;;;;10366008;28;855;-66
2023/04/25 19:20:19;;;;;;;;;;;19.00;46.80;;;;;;10366240;28;1963;-66
2023/04/25 19:25:15;;;;;;;;;;;19.00;46.80;;;;;;10365722;28;787;-66
2023/04/25 19:30:10;;;;;;;;;;;19.00;46.70;;;;;;10366133;28;781;-66
2023/04/25 19:35:05;;;;;;;;;;;19.10;46.60;;;;;;10365398;28;882;-66
2023/04/25 19:40:03;;;;;;;;;;;19.00;46.60;;;;;;10366020;28;1906;-66
2023/04/25 19:44:58;;;;;;;;;;;19.00;46.50;;;;;;10365178;28;866;-66
2023/04/25 19:49:54;;;;;;;;;;;19.00;46.50;;;;;;10367161;28;889;-66
2023/04/25 19:54:49;;;;;;;;;;;18.90;46.60;;;;;;10372026;28;1192;-66
2023/04/25 19:59:46;;;;;;;;;;;18.90;46.60;;;;;;10371766;28;1966;-67
2023/04/25 20:04:42;;;;;;;;;;;18.90;46.50;;;;;;10371938;28;913;-66
2023/04/25 20:09:38;;;;;;;;;;;18.90;47.00;;;;;;10371780;28;902;-66
2023/04/25 20:14:33;;;;;;;;;;;18.90;46.30;;;;;;10372401;28;844;-66
2023/04/25 20:19:29;;;;;;;;;;;18.90;46.40;;;;;;10372349;28;1902;-66
2023/04/25 20:24:24;;;;;;;;;;;18.90;46.70;;;;;;10371868;28;879;-66
2023/04/25 20:29:19;;;;;;;;;;;18.90;46.50;;;;;;10371090;28;842;-67
2023/04/25 20:34:15;;;;;;;;;;;18.90;46.40;;;;;;10370761;28;866;-66
2023/04/25 20:39:10;;;;;;;;;;;18.80;46.30;;;;;;10370797;28;1890;-66
2023/04/25 20:44:10;;;;;;;;;;;18.80;46.40;;;;;;10370911;28;846;-66
2023/04/25 20:49:06;;;;;;;;;;;18.80;46.60;;;;;;10370173;28;876;-66
2023/04/25 20:54:05;;;;;;;;;;;18.80;46.50;;;;;;10370571;28;830;-66
2023/04/25 20:59:00;;;;;;;;;;;18.80;46.60;;;;;;10369154;28;1906;-66
2023/04/25 21:03:56;;;;;;;;;;;18.80;46.50;;;;;;10368926;28;790;-67
2023/04/25 21:08:51;;;;;;;;;;;18.70;46.50;;;;;;10369937;28;798;-66
2023/04/25 21:13:47;;;;;;;;;;;18.70;46.40;;;;;;10370072;28;862;-67
2023/04/25 21:18:42;;;;;;;;;;;18.70;46.50;;;;;;10368933;28;1898;-66
2023/04/25 21:23:38;;;;;;;;;;;18.60;46.60;;;;;;10368576;28;1013;-67
2023/04/25 21:28:33;;;;;;;;;;;18.60;46.80;;;;;;10368481;28;873;-67
2023/04/25 21:33:28;;;;;;;;;;;18.60;46.70;;;;;;10367916;28;971;-66
2023/04/25 21:38:24;;;;;;;;;;;18.60;46.70;;;;;;10368236;28;1977;-66
2023/04/25 21:43:20;;;;;;;;;;;18.50;46.60;;;;;;10368123;28;979;-66
2023/04/25 21:48:15;;;;;;;;;;;18.50;46.60;;;;;;10368475;28;949;-66
2023/04/25 21:53:11;;;;;;;;;;;18.50;46.70;;;;;;10368316;28;802;-66
2023/04/25 21:58:06;;;;;;;;;;;18.50;46.70;;;;;;10367881;28;1898;-66
2023/04/25 22:03:01;;;;;;;;;;;18.50;46.80;;;;;;10368058;28;939;-66
2023/04/25 22:07:57;;;;;;;;;;;18.50;46.90;;;;;;10368048;28;830;-69
2023/04/25 22:12:52;;;;;;;;;;;18.50;46.80;;;;;;10366357;28;997;-68
2023/04/25 22:17:49;;;;;;;;;;;18.50;46.60;;;;;;10367133;28;1914;-67
2023/04/25 22:22:45;;;;;;;;;;;18.40;46.60;;;;;;10366785;28;1600;-66
2023/04/25 22:27:41;;;;;;;;;;;18.30;46.70;;;;;;10367389;28;860;-66
2023/04/25 22:32:37;;;;;;;;;;;18.30;46.90;;;;;;10366588;28;879;-66
2023/04/25 22:37:34;;;;;;;;;;;18.30;46.80;;;;;;10367025;28;1979;-66
2023/04/25 22:42:30;;;;;;;;;;;18.30;46.70;;;;;;10366300;28;898;-66
2023/04/25 22:47:26;;;;;;;;;;;18.30;46.70;;;;;;10366837;28;865;-66
2023/04/25 22:52:21;;;;;;;;;;;18.30;46.80;;;;;;10366769;28;858;-66
2023/04/25 22:57:17;;;;;;;;;;;18.30;46.90;;;;;;10365423;28;1914;-66
2023/04/25 23:02:12;;;;;;;;;;;18.30;46.90;;;;;;10365952;28;862;-66
2023/04/25 23:07:08;;;;;;;;;;;18.30;46.90;;;;;;10365398;28;841;-66
2023/04/25 23:12:03;;;;;;;;;;;18.20;46.70;;;;;;10365771;28;786;-67
2023/04/25 23:16:59;;;;;;;;;;;18.20;46.90;;;;;;10365805;28;1914;-66
2023/04/25 23:21:54;;;;;;;;;;;18.20;46.80;;;;;;10365610;28;789;-66
2023/04/25 23:26:50;;;;;;;;;;;18.20;46.90;;;;;;10370800;28;1011;-66
2023/04/25 23:31:46;;;;;;;;;;;18.20;46.90;;;;;;10374751;28;787;-66
2023/04/25 23:36:41;;;;;;;;;;;18.20;46.90;;;;;;10372963;28;1969;-66
2023/04/25 23:41:37;;;;;;;;;;;18.20;46.90;;;;;;10372906;28;822;-66
2023/04/25 23:46:32;;;;;;;;;;;18.20;46.90;;;;;;10372722;28;884;-66
2023/04/25 23:51:27;;;;;;;;;;;18.20;46.90;;;;;;10373220;28;1004;-66
2023/04/25 23:56:23;;;;;;;;;;;18.20;46.80;;;;;;10372059;28;1282;-66
